KHZX

Details ICAO KHZX
Name ISEDOR IVERSON
Region United States
Timezone America/Chicago (UTC-6.0)
Plans Departing 0
Arriving 0
Stats Elevation 1,228 ft / 374 m (AMSL)
Location 46.618797° -93.309811°
Runways 1
Magnetic Variation 0.057° E
Sunrise 2017-12-15 13:52:23 UTC / 2017-12-15 07:52:23 Local
Sunset 2017-12-15 22:27:25 UTC / 2017-12-15 16:27:25 Local
Advertisement - Login to hide

Runways

ID Width Length Bearing (true) Bearing (mag) Surface Threshold Offset Overrun Length
14 75 ft / 23 m 3,395 ft / 1,035 m 140.12° 140.06° Asphalt 0 ft / 0 m 0 ft / 0 m
32 75 ft / 23 m 3,395 ft / 1,035 m 320.12° 320.06° Asphalt 0 ft / 0 m 0 ft / 0 m

Map

Weather


0- 5 10 15 20 25 30 35+ Temperature / ° C

Clouds and Precipitation
Forecast for 2017-12-15 18:00 UTC. Updated an hour ago

Ground ~20,000 ft ~40,000 ft Winds

METAR

KHZX 151435Z AUTO 31003KT 10SM OVC015 M11/M13 A2986 RMK AO2

TAF

Not found

Frequencies

Recorded 119.57 MHz AWOS 3
Unicom 122.90 MHz CTAF
Warning: Do not use this data for real-world aviation or navigation. No guarantee of current accuracy is given.